Time;durP1;ratioP1;P1;durP2;ratioP2;P2;SDS_P1;SDS_P2;PMS_P1;PMS_P2;Temp;Humidity;BMP_temperature;BMP_pressure;BME280_temperature;BME280_humidity;BME280_pressure;Samples;Min_cycle;Max_cycle;Signal;HPM_P1;HPM_P2
2022/07/21 00:00:06;;;;;;;7.50;4.38;;;22.40;76.10;;;;;;5030987;28;20201;-84
2022/07/21 00:02:38;;;;;;;5.57;3.95;;;22.40;75.20;;;;;;5037644;28;20199;-85
2022/07/21 00:05:06;;;;;;;6.78;4.53;;;22.30;81.30;;;;;;5036069;28;20231;-84
2022/07/21 00:07:33;;;;;;;5.47;4.25;;;22.10;82.30;;;;;;5038457;28;20222;-84
2022/07/21 00:10:00;;;;;;;6.03;4.30;;;22.00;82.20;;;;;;5033734;28;20267;-85
2022/07/21 00:12:27;;;;;;;6.20;4.20;;;22.10;80.80;;;;;;5044082;28;20195;-84
2022/07/21 00:14:53;;;;;;;6.15;4.68;;;22.20;79.40;;;;;;5047289;28;20222;-85
2022/07/21 00:17:22;;;;;;;5.47;4.40;;;22.00;85.20;;;;;;5035688;28;20203;-84
2022/07/21 00:19:57;;;;;;;7.70;5.07;;;21.90;84.00;;;;;;5033401;28;20202;-85
2022/07/21 00:22:27;;;;;;;9.30;4.50;;;21.70;88.10;;;;;;5036852;28;20197;-85
2022/07/21 00:24:58;;;;;;;4.90;4.40;;;21.90;84.10;;;;;;5022566;28;20217;-87
2022/07/21 00:27:26;;;;;;;5.93;4.57;;;21.90;82.40;;;;;;5028870;28;20218;-84
2022/07/21 00:29:53;;;;;;;7.13;5.30;;;22.00;82.20;;;;;;5038758;28;20278;-84
2022/07/21 00:32:21;;;;;;;5.68;5.07;;;22.00;82.20;;;;;;5033757;28;20227;-84
2022/07/21 00:34:56;;;;;;;7.03;4.63;;;21.70;86.60;;;;;;5031319;28;20199;-86
2022/07/21 00:37:24;;;;;;;7.40;4.35;;;21.70;87.10;;;;;;5039261;28;20198;-85
2022/07/21 00:39:51;;;;;;;5.53;4.45;;;21.70;88.50;;;;;;5029585;28;20200;-85
2022/07/21 00:42:22;;;;;;;5.60;5.00;;;21.70;89.80;;;;;;5032777;28;20670;-85
2022/07/21 00:44:49;;;;;;;6.63;5.00;;;21.70;90.10;;;;;;5029130;28;20621;-84
2022/07/21 00:47:16;;;;;;;6.55;5.03;;;21.80;88.60;;;;;;5033907;28;20201;-83
2022/07/21 00:49:45;;;;;;;6.25;5.03;;;21.80;90.60;;;;;;5031664;28;20195;-84
2022/07/21 00:52:11;;;;;;;12.80;5.30;;;21.70;91.30;;;;;;5036317;28;20205;-84
2022/07/21 00:54:38;;;;;;;6.55;5.15;;;21.60;92.30;;;;;;5022048;28;20249;-84
2022/07/21 00:57:06;;;;;;;10.73;5.53;;;21.40;92.20;;;;;;5035026;28;20203;-84
2022/07/21 00:59:33;;;;;;;8.35;4.97;;;21.40;92.40;;;;;;5028584;28;20220;-84
2022/07/21 01:01:59;;;;;;;7.68;4.90;;;21.20;92.90;;;;;;5031988;28;20236;-84
2022/07/21 01:04:26;;;;;;;6.65;5.38;;;21.30;92.20;;;;;;5035139;28;20201;-84
2022/07/21 01:07:00;;;;;;;8.05;5.28;;;21.30;92.70;;;;;;5027207;28;20647;-84
2022/07/21 01:09:28;;;;;;;8.02;5.72;;;21.20;92.90;;;;;;5031604;28;20223;-84
2022/07/21 01:11:54;;;;;;;8.13;5.80;;;21.20;93.10;;;;;;5025201;28;20211;-84
2022/07/21 01:14:27;;;;;;;8.10;5.15;;;21.10;92.90;;;;;;5030476;28;20203;-84
2022/07/21 01:16:55;;;;;;;8.23;5.13;;;21.00;93.60;;;;;;5030267;28;20207;-84
2022/07/21 01:19:22;;;;;;;7.55;5.40;;;21.00;93.50;;;;;;5034238;28;20209;-84
2022/07/21 01:21:52;;;;;;;6.20;5.32;;;21.00;93.60;;;;;;5032907;28;20651;-84
2022/07/21 01:24:19;;;;;;;7.38;5.55;;;21.10;92.90;;;;;;5027174;28;20257;-84
2022/07/21 01:26:47;;;;;;;5.35;4.82;;;21.20;92.90;;;;;;5030621;28;20203;-85
2022/07/21 01:29:15;;;;;;;12.77;6.03;;;21.40;92.10;;;;;;5036574;28;20218;-84
2022/07/21 01:31:43;;;;;;;9.55;5.50;;;21.40;92.50;;;;;;5033194;28;20218;-84
2022/07/21 01:34:11;;;;;;;8.23;5.43;;;21.20;92.90;;;;;;5036982;28;20281;-84
2022/07/21 01:36:38;;;;;;;7.25;5.80;;;21.20;92.90;;;;;;5036796;28;20194;-84
2022/07/21 01:41:53;;;;;;;8.18;5.40;;;21.30;92.00;;;;;;5028951;28;20213;-84
2022/07/21 01:44:20;;;;;;;6.55;5.40;;;21.30;91.80;;;;;;5031491;28;20194;-84
2022/07/21 01:47:02;;;;;;;7.82;5.20;;;21.20;92.20;;;;;;5035004;28;20209;-84
2022/07/21 01:49:29;;;;;;;7.63;5.82;;;21.30;91.90;;;;;;5029334;28;20206;-87
2022/07/21 01:51:56;;;;;;;8.52;5.43;;;21.20;92.40;;;;;;5025219;28;20199;-84
2022/07/21 01:54:24;;;;;;;12.23;5.60;;;20.90;92.80;;;;;;5029133;28;20199;-84
2022/07/21 01:56:56;;;;;;;6.68;5.97;;;20.80;93.00;;;;;;5027923;28;20293;-84
2022/07/21 01:59:23;;;;;;;6.53;5.63;;;20.80;93.80;;;;;;5033806;28;20202;-84
2022/07/21 02:01:50;;;;;;;8.68;5.68;;;20.70;94.00;;;;;;5036104;28;20203;-84
2022/07/21 02:04:17;;;;;;;6.50;5.68;;;20.90;93.30;;;;;;5026056;28;20203;-84
2022/07/21 02:06:44;;;;;;;7.93;5.68;;;20.90;93.60;;;;;;5027005;28;20211;-84
2022/07/21 02:09:11;;;;;;;6.03;5.20;;;20.90;93.80;;;;;;5035678;28;20234;-84
2022/07/21 02:11:39;;;;;;;6.95;5.95;;;21.10;93.10;;;;;;5029845;28;20199;-84
2022/07/21 02:14:08;;;;;;;7.10;5.63;;;21.30;92.50;;;;;;5034389;28;20594;-84
2022/07/21 02:16:36;;;;;;;6.63;5.63;;;21.40;91.60;;;;;;5026357;28;20655;-84
2022/07/21 02:19:03;;;;;;;9.02;6.07;;;21.50;91.30;;;;;;5032537;28;20217;-84
2022/07/21 02:21:38;;;;;;;6.72;5.38;;;21.60;91.60;;;;;;5025813;28;20199;-84
2022/07/21 02:24:06;;;;;;;7.10;5.70;;;21.50;92.20;;;;;;5030346;28;20198;-84
2022/07/21 02:26:33;;;;;;;8.23;5.93;;;21.30;93.00;;;;;;5020894;28;20211;-84
2022/07/21 02:29:02;;;;;;;6.68;6.07;;;21.10;93.90;;;;;;5029715;28;20229;-84
2022/07/21 02:31:28;;;;;;;6.72;5.80;;;21.30;92.50;;;;;;5031602;28;20194;-84
2022/07/21 02:33:56;;;;;;;6.50;5.65;;;21.30;92.70;;;;;;5025996;28;20202;-85
2022/07/21 02:36:23;;;;;;;6.60;5.47;;;21.40;92.40;;;;;;5031683;28;20203;-84
2022/07/21 02:38:50;;;;;;;8.07;6.03;;;21.40;92.20;;;;;;5034003;28;20214;-85
2022/07/21 02:41:20;;;;;;;6.90;5.65;;;21.30;92.90;;;;;;5030462;28;20199;-84
2022/07/21 02:43:47;;;;;;;8.00;6.13;;;21.10;93.40;;;;;;5034092;28;20202;-84
2022/07/21 02:46:16;;;;;;;6.50;5.90;;;21.00;93.80;;;;;;5041536;28;20263;-85
2022/07/21 02:48:43;;;;;;;6.40;5.80;;;21.00;94.00;;;;;;5039279;28;20323;-84
2022/07/21 02:51:09;;;;;;;7.82;5.72;;;21.30;93.00;;;;;;5027150;28;20203;-84
2022/07/21 02:53:36;;;;;;;6.60;5.55;;;21.40;91.90;;;;;;5033587;28;20650;-83
2022/07/21 02:56:09;;;;;;;7.63;5.90;;;21.50;91.70;;;;;;5025326;28;20196;-84
2022/07/21 02:58:35;;;;;;;6.95;6.25;;;21.50;91.60;;;;;;5024687;28;20201;-84
2022/07/21 03:01:05;;;;;;;7.63;6.05;;;21.50;91.30;;;;;;5031886;28;20202;-84
2022/07/21 03:03:36;;;;;;;6.60;5.85;;;21.60;90.70;;;;;;5030263;28;20199;-84
2022/07/21 03:06:04;;;;;;;6.32;5.63;;;21.60;90.90;;;;;;5024609;28;20218;-84
2022/07/21 03:08:31;;;;;;;7.40;6.32;;;21.60;90.60;;;;;;5037778;28;20224;-84
2022/07/21 03:11:03;;;;;;;8.10;5.85;;;21.60;90.70;;;;;;5023932;28;20252;-84
2022/07/21 03:13:30;;;;;;;6.50;5.90;;;21.60;90.60;;;;;;5032761;28;20548;-84
2022/07/21 03:16:03;;;;;;;7.50;5.85;;;21.70;90.40;;;;;;5036862;28;20212;-84
2022/07/21 03:18:29;;;;;;;8.50;6.22;;;21.80;90.40;;;;;;5031397;28;20382;-84
2022/07/21 03:20:58;;;;;;;6.93;5.97;;;21.80;90.30;;;;;;5030852;28;20203;-84
2022/07/21 03:23:25;;;;;;;7.90;6.28;;;21.70;90.50;;;;;;5027290;28;20257;-84
2022/07/21 03:26:02;;;;;;;8.98;6.63;;;21.80;90.40;;;;;;5031776;28;20198;-87
2022/07/21 03:28:29;;;;;;;7.55;6.35;;;21.80;90.20;;;;;;5029773;28;20219;-84
2022/07/21 03:30:57;;;;;;;8.60;6.20;;;21.70;90.60;;;;;;5036813;28;20209;-84
2022/07/21 03:33:23;;;;;;;9.32;6.43;;;21.70;90.60;;;;;;5029070;28;20227;-83
2022/07/21 03:35:50;;;;;;;9.27;6.32;;;21.50;91.00;;;;;;5034082;28;20233;-84
2022/07/21 03:38:19;;;;;;;7.05;6.15;;;21.30;91.80;;;;;;5031636;28;20217;-84
2022/07/21 03:40:46;;;;;;;7.63;6.45;;;21.30;92.90;;;;;;5032160;28;20203;-84
2022/07/21 03:43:12;;;;;;;7.30;6.60;;;21.20;92.90;;;;;;5027555;28;20203;-85
2022/07/21 03:45:39;;;;;;;9.25;6.80;;;21.20;92.90;;;;;;5037371;28;20261;-84
2022/07/21 03:48:10;;;;;;;8.23;6.28;;;21.30;92.90;;;;;;5024893;28;20283;-86
2022/07/21 03:50:39;;;;;;;8.85;7.25;;;21.40;92.20;;;;;;5038009;28;20209;-84
2022/07/21 03:53:06;;;;;;;7.80;7.00;;;21.60;91.50;;;;;;5025017;28;20226;-84
2022/07/21 03:55:35;;;;;;;8.07;7.13;;;21.70;90.80;;;;;;5036398;28;20207;-84
2022/07/21 03:58:05;;;;;;;8.93;7.28;;;21.70;90.60;;;;;;5032165;28;20206;-84
2022/07/21 04:00:34;;;;;;;10.20;8.10;;;21.70;90.90;;;;;;5033356;28;20209;-84
2022/07/21 04:03:01;;;;;;;9.70;8.02;;;21.50;91.60;;;;;;5023544;28;20204;-84
2022/07/21 04:05:29;;;;;;;9.95;7.93;;;21.50;91.80;;;;;;5030009;28;20202;-85
2022/07/21 04:07:57;;;;;;;10.27;9.23;;;21.40;91.80;;;;;;5034333;28;20214;-84
2022/07/21 04:10:26;;;;;;;9.50;8.52;;;21.30;92.10;;;;;;5034111;28;20736;-84
2022/07/21 04:12:55;;;;;;;8.77;7.90;;;21.30;92.10;;;;;;5034532;28;20207;-84
2022/07/21 04:15:23;;;;;;;10.20;8.10;;;21.30;92.10;;;;;;5028030;28;20199;-85
2022/07/21 04:17:51;;;;;;;12.35;9.10;;;21.30;92.00;;;;;;5033373;28;20209;-85
2022/07/21 04:20:18;;;;;;;9.80;8.80;;;21.30;92.00;;;;;;5031017;28;20666;-84
2022/07/21 04:22:47;;;;;;;9.18;8.07;;;21.30;91.90;;;;;;5034889;28;20213;-84
2022/07/21 04:25:15;;;;;;;10.82;9.50;;;21.50;90.90;;;;;;5036567;28;20672;-84
2022/07/21 04:27:42;;;;;;;10.40;9.35;;;21.60;90.30;;;;;;5028177;28;20232;-84
2022/07/21 04:30:14;;;;;;;14.43;9.52;;;21.70;90.60;;;;;;5030911;28;20260;-85
2022/07/21 04:32:41;;;;;;;10.82;9.60;;;21.50;90.80;;;;;;5032232;28;20219;-84
2022/07/21 04:35:09;;;;;;;12.32;9.85;;;21.50;90.80;;;;;;5036935;28;20208;-84
2022/07/21 04:37:36;;;;;;;9.90;9.07;;;21.40;91.20;;;;;;5022505;28;20213;-84
2022/07/21 04:40:20;;;;;;;11.50;10.02;;;21.40;91.00;;;;;;5034564;28;20214;-84
2022/07/21 04:42:47;;;;;;;12.05;9.98;;;21.40;90.70;;;;;;5033087;28;20217;-84
2022/07/21 04:45:17;;;;;;;10.25;9.25;;;21.50;90.30;;;;;;5027265;28;20204;-84
2022/07/21 04:47:45;;;;;;;12.38;9.80;;;21.40;90.60;;;;;;5032105;28;20221;-84
2022/07/21 04:50:12;;;;;;;10.15;9.15;;;21.40;90.30;;;;;;5031392;28;20222;-86
2022/07/21 04:52:40;;;;;;;11.07;10.05;;;21.50;90.40;;;;;;5031446;28;20198;-84
2022/07/21 04:55:09;;;;;;;13.40;10.38;;;21.60;89.40;;;;;;5034865;28;20653;-85
2022/07/21 04:57:38;;;;;;;11.95;10.35;;;21.60;90.00;;;;;;5033453;28;20203;-85
2022/07/21 05:00:06;;;;;;;10.73;9.73;;;21.50;90.00;;;;;;5033335;28;20206;-87
2022/07/21 05:02:41;;;;;;;11.27;10.15;;;21.50;90.50;;;;;;5037131;28;20199;-86
2022/07/21 05:05:09;;;;;;;11.10;10.00;;;21.60;89.70;;;;;;5029803;28;20191;-87
2022/07/21 05:07:36;;;;;;;10.77;9.75;;;21.70;88.10;;;;;;5036336;28;20198;-85
2022/07/21 05:10:17;;;;;;;10.70;9.70;;;21.70;89.00;;;;;;5034719;28;20237;-85
2022/07/21 05:12:45;;;;;;;12.55;10.65;;;21.80;88.70;;;;;;5028175;28;20199;-84
2022/07/21 05:15:13;;;;;;;11.57;9.93;;;21.80;86.50;;;;;;5031869;28;20203;-83
2022/07/21 05:17:58;;;;;;;12.15;10.13;;;21.70;87.90;;;;;;5032557;28;20286;-83
2022/07/21 05:20:32;;;;;;;11.30;10.20;;;21.70;87.60;;;;;;5044977;28;20205;-83
2022/07/21 05:22:59;;;;;;;11.90;10.25;;;21.60;88.50;;;;;;5026038;28;20198;-82
2022/07/21 05:25:26;;;;;;;12.48;10.80;;;21.80;86.50;;;;;;5024724;28;20654;-83
2022/07/21 05:28:03;;;;;;;12.10;10.55;;;21.80;86.90;;;;;;5030117;28;20202;-83
2022/07/21 05:30:38;;;;;;;12.50;11.20;;;22.00;84.30;;;;;;5034120;28;20212;-83
2022/07/21 05:33:07;;;;;;;11.15;10.13;;;22.00;84.60;;;;;;5027190;28;20229;-82
2022/07/21 05:35:33;;;;;;;13.20;10.48;;;22.10;84.70;;;;;;5025611;28;20198;-82
2022/07/21 05:38:00;;;;;;;11.30;10.20;;;22.10;84.70;;;;;;5023308;28;20286;-83
2022/07/21 05:40:50;;;;;;;12.27;11.00;;;22.10;84.30;;;;;;5031632;28;20203;-82
2022/07/21 05:43:17;;;;;;;12.35;10.73;;;22.10;84.90;;;;;;5030275;28;20198;-82
2022/07/21 05:45:44;;;;;;;13.10;11.18;;;22.20;85.30;;;;;;5028041;28;20207;-82
2022/07/21 05:48:16;;;;;;;12.85;11.05;;;22.20;83.70;;;;;;5030383;28;20191;-83
2022/07/21 05:50:43;;;;;;;11.52;10.32;;;22.30;83.10;;;;;;5025695;28;20226;-82
2022/07/21 05:53:09;;;;;;;11.55;10.32;;;22.60;80.40;;;;;;5031814;28;20205;-83
2022/07/21 05:55:37;;;;;;;12.55;10.20;;;22.90;77.90;;;;;;5026638;28;20218;-84
2022/07/21 05:58:04;;;;;;;10.77;9.70;;;22.90;78.40;;;;;;5021678;28;20207;-84
2022/07/21 06:00:31;;;;;;;13.48;11.50;;;23.00;77.30;;;;;;5029961;28;20550;-84
2022/07/21 06:03:03;;;;;;;12.88;11.50;;;23.10;77.60;;;;;;5032366;28;20206;-86
2022/07/21 06:05:34;;;;;;;13.75;11.55;;;23.20;75.80;;;;;;5019598;28;20198;-84
2022/07/21 06:08:01;;;;;;;13.23;11.57;;;23.40;75.20;;;;;;5020579;28;20204;-83
2022/07/21 06:10:33;;;;;;;13.35;11.50;;;23.40;74.00;;;;;;5025500;28;20305;-84
2022/07/21 06:13:08;;;;;;;12.63;11.32;;;23.20;73.80;;;;;;5018707;28;20662;-83
2022/07/21 06:15:35;;;;;;;12.55;11.25;;;23.00;76.60;;;;;;5027196;28;20203;-87
2022/07/21 06:18:02;;;;;;;12.52;10.70;;;22.90;75.80;;;;;;5023038;28;20195;-85
2022/07/21 06:20:29;;;;;;;12.75;11.20;;;22.80;76.70;;;;;;5027250;28;20194;-82
2022/07/21 06:22:58;;;;;;;14.18;10.73;;;22.70;78.10;;;;;;5022071;28;20568;-84
2022/07/21 06:25:25;;;;;;;13.27;10.23;;;22.70;78.00;;;;;;5026524;28;20203;-86
2022/07/21 06:27:52;;;;;;;12.43;10.85;;;22.70;77.40;;;;;;5025398;28;20361;-83
2022/07/21 06:30:19;;;;;;;12.15;10.95;;;22.80;77.90;;;;;;5023121;28;20219;-86
2022/07/21 06:32:46;;;;;;;14.85;11.18;;;22.70;78.00;;;;;;5021734;28;20573;-84
2022/07/21 06:35:13;;;;;;;12.95;10.65;;;22.80;77.00;;;;;;5023379;28;20207;-83
2022/07/21 06:37:39;;;;;;;15.32;11.73;;;22.80;78.50;;;;;;5020559;28;20206;-84
2022/07/21 06:40:09;;;;;;;12.75;11.43;;;22.70;77.10;;;;;;5022102;28;20289;-83
2022/07/21 06:42:45;;;;;;;13.82;10.90;;;22.80;77.40;;;;;;5035287;28;20198;-83
2022/07/21 06:45:15;;;;;;;12.70;11.35;;;22.80;77.60;;;;;;5030287;28;20205;-83
2022/07/21 06:47:51;;;;;;;12.20;11.00;;;22.90;76.00;;;;;;5034636;28;20517;-83
2022/07/21 06:50:18;;;;;;;14.18;12.38;;;23.00;76.30;;;;;;5036687;28;20214;-84
2022/07/21 06:52:45;;;;;;;14.43;12.40;;;22.90;77.70;;;;;;5029840;28;20231;-85
2022/07/21 06:55:13;;;;;;;14.45;12.32;;;22.70;79.70;;;;;;5028174;28;20205;-84
2022/07/21 06:57:40;;;;;;;14.68;13.18;;;22.80;79.20;;;;;;5026228;28;20198;-84
2022/07/21 07:00:08;;;;;;;14.27;12.80;;;22.90;79.10;;;;;;5031225;28;20195;-83
2022/07/21 07:02:35;;;;;;;14.52;13.15;;;22.90;79.00;;;;;;5028574;28;20206;-84
2022/07/21 07:05:03;;;;;;;15.57;13.13;;;23.10;79.10;;;;;;5030519;28;20209;-84
2022/07/21 07:07:30;;;;;;;13.68;12.30;;;23.30;76.70;;;;;;5030235;28;20278;-84
2022/07/21 07:09:58;;;;;;;15.18;13.05;;;23.50;74.70;;;;;;5035702;28;20218;-84
2022/07/21 07:12:27;;;;;;;14.82;13.43;;;23.40;74.90;;;;;;5031717;28;20261;-84
2022/07/21 07:14:53;;;;;;;15.75;13.95;;;23.30;76.00;;;;;;5029065;28;20198;-84
2022/07/21 07:17:21;;;;;;;16.90;13.32;;;23.20;77.00;;;;;;5027866;28;20194;-84
2022/07/21 07:19:48;;;;;;;17.88;14.02;;;23.00;77.60;;;;;;5034073;28;20204;-83
2022/07/21 07:22:44;;;;;;;15.05;13.50;;;23.10;76.60;;;;;;5024844;28;20204;-83
2022/07/21 07:25:11;;;;;;;17.08;13.55;;;23.00;77.10;;;;;;5036664;28;20199;-82
2022/07/21 07:27:39;;;;;;;16.48;12.50;;;23.00;77.20;;;;;;5028271;28;20191;-82
2022/07/21 07:30:08;;;;;;;16.55;13.18;;;23.10;77.00;;;;;;5024400;28;20227;-84
2022/07/21 07:32:34;;;;;;;18.70;13.10;;;23.30;76.90;;;;;;5023362;28;20231;-82
2022/07/21 07:35:01;;;;;;;15.10;12.85;;;23.30;77.20;;;;;;5025508;28;20210;-83
2022/07/21 07:37:28;;;;;;;13.32;11.65;;;23.50;74.60;;;;;;5035162;28;20221;-82
2022/07/21 07:39:57;;;;;;;16.52;12.25;;;23.60;68.70;;;;;;5028036;28;20207;-84
2022/07/21 07:42:23;;;;;;;12.48;11.27;;;23.70;68.10;;;;;;5025650;28;20202;-84
2022/07/21 07:44:52;;;;;;;12.85;11.55;;;23.70;67.20;;;;;;5038702;28;20209;-82
2022/07/21 07:47:21;;;;;;;14.57;10.40;;;23.80;61.30;;;;;;5036118;28;20222;-84
2022/07/21 07:50:03;;;;;;;12.73;11.52;;;23.90;62.60;;;;;;5047324;28;20287;-82
2022/07/21 07:52:30;;;;;;;12.93;10.93;;;24.00;60.70;;;;;;5039877;28;20194;-82
2022/07/21 07:54:57;;;;;;;13.50;10.52;;;24.00;59.50;;;;;;5028923;28;20209;-82
2022/07/21 07:57:23;;;;;;;12.75;11.05;;;24.00;59.60;;;;;;5030373;28;20195;-82
2022/07/21 07:59:51;;;;;;;12.95;11.57;;;24.00;59.70;;;;;;5034162;28;20206;-81
2022/07/21 08:02:18;;;;;;;13.55;11.18;;;23.90;59.40;;;;;;5030474;28;20195;-81
2022/07/21 08:04:45;;;;;;;12.00;10.88;;;24.00;60.50;;;;;;5017617;28;20202;-83
2022/07/21 08:07:15;;;;;;;12.45;11.07;;;24.00;61.00;;;;;;5020160;28;20198;-85
2022/07/21 08:09:41;;;;;;;12.40;11.18;;;23.90;62.10;;;;;;5030838;28;20212;-84
2022/07/21 08:12:09;;;;;;;12.80;11.10;;;24.00;59.60;;;;;;5023178;28;20228;-83
2022/07/21 08:14:35;;;;;;;12.20;10.90;;;24.00;60.30;;;;;;5033308;28;20285;-83
2022/07/21 08:17:04;;;;;;;13.15;11.75;;;23.80;59.80;;;;;;5023661;28;20608;-83
2022/07/21 08:19:31;;;;;;;12.40;11.18;;;23.70;61.50;;;;;;5018039;28;20230;-86
2022/07/21 08:21:57;;;;;;;12.80;11.57;;;23.60;63.30;;;;;;5037989;28;20286;-85
2022/07/21 08:24:28;;;;;;;11.93;10.63;;;23.60;63.00;;;;;;5019885;28;20205;-86
2022/07/21 08:26:55;;;;;;;13.07;11.77;;;23.60;64.50;;;;;;5016087;28;20202;-86
2022/07/21 08:29:21;;;;;;;13.65;11.63;;;23.50;64.10;;;;;;5017459;28;20203;-85
2022/07/21 08:31:51;;;;;;;13.60;11.68;;;23.50;66.10;;;;;;5024999;28;20258;-83
2022/07/21 08:34:19;;;;;;;15.13;11.60;;;23.50;67.70;;;;;;5022329;28;20201;-84
2022/07/21 08:36:46;;;;;;;12.82;11.52;;;23.60;65.50;;;;;;5029373;28;20210;-84
2022/07/21 08:39:12;;;;;;;16.15;12.18;;;23.60;64.20;;;;;;5018317;28;20199;-83
2022/07/21 08:41:41;;;;;;;13.48;12.18;;;23.70;64.30;;;;;;5031911;28;20210;-84
2022/07/21 08:44:10;;;;;;;15.02;12.60;;;23.70;64.90;;;;;;5035897;28;20205;-84
2022/07/21 08:46:38;;;;;;;13.13;11.75;;;23.80;65.20;;;;;;5026721;28;20203;-83
2022/07/21 08:49:05;;;;;;;12.90;11.60;;;23.60;63.70;;;;;;5031346;28;20207;-83
2022/07/21 08:51:37;;;;;;;14.70;11.75;;;23.40;66.50;;;;;;5026562;28;20310;-82
2022/07/21 08:54:05;;;;;;;12.30;11.10;;;23.30;68.40;;;;;;5021781;28;20570;-84
2022/07/21 08:56:32;;;;;;;15.95;12.23;;;23.20;66.90;;;;;;5025821;28;20203;-82
2022/07/21 08:58:59;;;;;;;13.13;11.82;;;23.10;67.90;;;;;;5038006;28;20208;-81
2022/07/21 09:01:26;;;;;;;14.13;12.02;;;23.00;68.90;;;;;;5032054;28;20290;-82
2022/07/21 09:03:53;;;;;;;13.05;11.75;;;22.90;70.50;;;;;;5034959;28;20205;-82
2022/07/21 09:06:21;;;;;;;14.07;12.02;;;23.00;71.00;;;;;;5029858;28;20594;-82
2022/07/21 09:08:50;;;;;;;12.75;11.45;;;23.00;71.80;;;;;;5035384;28;20217;-82
2022/07/21 09:11:22;;;;;;;16.30;11.75;;;22.90;71.30;;;;;;5035367;28;20223;-83
2022/07/21 09:13:52;;;;;;;13.50;11.73;;;22.90;73.40;;;;;;5026534;28;20209;-84
2022/07/21 09:16:37;;;;;;;13.02;11.70;;;22.90;73.60;;;;;;5034781;28;20203;-83
2022/07/21 09:19:05;;;;;;;13.05;11.63;;;22.90;73.30;;;;;;5031317;28;20286;-83
2022/07/21 09:21:32;;;;;;;12.80;11.43;;;22.90;70.50;;;;;;5034524;28;20195;-81
2022/07/21 09:24:15;;;;;;;13.68;11.15;;;22.80;72.10;;;;;;5024080;28;20205;-81
2022/07/21 09:27:11;;;;;;;13.02;11.73;;;22.80;71.60;;;;;;5027143;28;20282;-81
2022/07/21 09:29:47;;;;;;;13.32;11.90;;;22.70;73.60;;;;;;5022510;28;20201;-82
2022/07/21 09:32:25;;;;;;;14.55;13.02;;;22.60;75.70;;;;;;5031443;28;20226;-83
2022/07/21 09:34:54;;;;;;;18.98;14.13;;;22.50;77.90;;;;;;5024405;28;20199;-83
2022/07/21 09:37:22;;;;;;;15.13;13.35;;;22.60;78.10;;;;;;5032988;28;20203;-83
2022/07/21 09:39:52;;;;;;;14.80;13.23;;;22.50;78.30;;;;;;5037595;28;20203;-85
2022/07/21 09:42:23;;;;;;;16.35;13.93;;;22.50;78.70;;;;;;5026306;28;20195;-84
2022/07/21 09:44:53;;;;;;;14.35;12.95;;;22.40;79.70;;;;;;5033321;28;20199;-81
2022/07/21 09:47:22;;;;;;;18.40;13.20;;;22.30;79.00;;;;;;5030427;28;20207;-82
2022/07/21 09:49:49;;;;;;;15.23;12.95;;;22.30;79.60;;;;;;5034510;28;20199;-81
2022/07/21 09:52:29;;;;;;;13.45;12.25;;;22.30;81.40;;;;;;5038855;28;20238;-81
2022/07/21 09:54:59;;;;;;;14.57;13.07;;;22.40;79.20;;;;;;5026041;28;20206;-81
2022/07/21 09:57:26;;;;;;;15.18;13.18;;;22.40;78.50;;;;;;5034725;28;20214;-81
2022/07/21 09:59:53;;;;;;;15.90;13.88;;;22.30;78.80;;;;;;5031831;28;20202;-82
2022/07/21 10:02:23;;;;;;;17.20;14.80;;;22.30;81.50;;;;;;5031951;28;20229;-80
2022/07/21 10:04:58;;;;;;;18.00;15.18;;;22.00;85.60;;;;;;5024754;28;20270;-83
2022/07/21 10:07:26;;;;;;;16.92;15.32;;;21.70;90.70;;;;;;5035986;28;20198;-81
2022/07/21 10:09:53;;;;;;;15.10;13.70;;;21.50;93.00;;;;;;5031300;28;20207;-84
2022/07/21 10:12:27;;;;;;;17.38;15.60;;;21.40;93.00;;;;;;5033427;28;20223;-82
2022/07/21 10:14:57;;;;;;;16.42;14.75;;;21.20;93.80;;;;;;5027064;28;20209;-82
2022/07/21 10:17:25;;;;;;;16.92;15.13;;;21.20;93.30;;;;;;5042622;28;20195;-82
2022/07/21 10:20:03;;;;;;;16.63;14.57;;;21.10;94.60;;;;;;5032915;28;20216;-82
2022/07/21 10:22:42;;;;;;;19.40;14.80;;;21.00;94.30;;;;;;5028582;28;20560;-84
2022/07/21 10:25:10;;;;;;;17.20;14.48;;;20.90;95.80;;;;;;5029395;28;20202;-86
2022/07/21 10:27:38;;;;;;;15.40;13.88;;;20.90;95.60;;;;;;5033538;28;20204;-84
2022/07/21 10:30:06;;;;;;;15.65;14.02;;;20.80;96.50;;;;;;5031931;28;20680;-84
2022/07/21 10:32:51;;;;;;;15.18;13.73;;;20.80;97.00;;;;;;5034223;28;20231;-83
2022/07/21 10:35:30;;;;;;;15.07;13.52;;;20.90;96.60;;;;;;5033756;28;20198;-85
2022/07/21 10:37:57;;;;;;;15.82;13.98;;;21.10;95.10;;;;;;5037984;28;20198;-85
2022/07/21 10:40:39;;;;;;;17.05;15.35;;;21.30;94.80;;;;;;5035281;28;20282;-86
2022/07/21 10:43:46;;;;;;;17.45;15.65;;;21.20;95.70;;;;;;5025329;28;20197;-86
2022/07/21 10:46:35;;;;;;;17.17;15.52;;;21.10;96.00;;;;;;5036450;28;20230;-86
2022/07/21 10:49:05;;;;;;;17.42;15.57;;;21.10;96.60;;;;;;5035030;28;20214;-86
2022/07/21 10:51:33;;;;;;;17.25;15.52;;;21.10;97.20;;;;;;5033371;28;20214;-85
2022/07/21 10:54:25;;;;;;;16.75;15.05;;;21.10;97.00;;;;;;5036176;28;20194;-85
2022/07/21 10:57:26;;;;;;;14.25;12.95;;;21.30;95.60;;;;;;5030851;28;20249;-84
2022/07/21 11:00:23;;;;;;;14.45;12.95;;;21.50;94.30;;;;;;5030253;28;20260;-84
2022/07/21 11:02:54;;;;;;;14.55;13.15;;;22.00;93.10;;;;;;5025176;28;20230;-86
2022/07/21 11:05:21;;;;;;;14.88;12.93;;;22.20;91.90;;;;;;5030962;28;20198;-85
2022/07/21 11:08:14;;;;;;;15.02;13.43;;;22.20;91.40;;;;;;5029369;28;20208;-86
2022/07/21 11:10:43;;;;;;;15.57;14.00;;;22.30;91.80;;;;;;5032376;28;20256;-85
2022/07/21 11:13:11;;;;;;;16.25;14.65;;;22.30;90.70;;;;;;5035588;28;20682;-84
2022/07/21 11:15:45;;;;;;;13.73;12.50;;;22.10;91.90;;;;;;5032023;28;20654;-86
2022/07/21 11:18:18;;;;;;;13.52;12.23;;;22.10;92.00;;;;;;5036383;28;20199;-85
2022/07/21 11:20:45;;;;;;;13.98;12.57;;;22.30;91.30;;;;;;5032134;28;20573;-86
2022/07/21 11:23:11;;;;;;;13.52;12.13;;;22.40;91.00;;;;;;5033987;28;20203;-86
2022/07/21 11:25:38;;;;;;;13.95;12.68;;;22.50;90.00;;;;;;5031929;28;20459;-85
2022/07/21 11:28:17;;;;;;;13.20;12.00;;;22.60;90.20;;;;;;5031615;28;20202;-86
2022/07/21 11:30:44;;;;;;;13.50;12.25;;;22.60;90.20;;;;;;5022236;28;20198;-85
2022/07/21 11:33:21;;;;;;;14.75;13.35;;;22.50;91.00;;;;;;5026816;28;20218;-86
2022/07/21 11:35:58;;;;;;;14.93;12.88;;;22.60;90.30;;;;;;5022778;28;20679;-87
2022/07/21 11:38:25;;;;;;;15.25;13.40;;;22.50;90.00;;;;;;5027364;28;20202;-85
2022/07/21 11:40:52;;;;;;;15.77;14.13;;;22.40;90.20;;;;;;5030326;28;20206;-85
2022/07/21 11:43:19;;;;;;;17.27;14.90;;;22.20;91.30;;;;;;5028228;28;20207;-86
2022/07/21 11:45:52;;;;;;;15.23;13.73;;;22.10;91.60;;;;;;5030944;28;20206;-86
2022/07/21 11:48:32;;;;;;;16.58;14.98;;;22.10;91.40;;;;;;5025914;28;20206;-86
2022/07/21 11:51:03;;;;;;;14.13;12.70;;;22.00;92.20;;;;;;5026955;28;20313;-84
2022/07/21 11:53:30;;;;;;;15.52;13.93;;;22.10;92.20;;;;;;5030528;28;20207;-87
2022/07/21 11:55:57;;;;;;;15.75;13.77;;;22.40;90.60;;;;;;5035831;28;20211;-84
2022/07/21 11:58:24;;;;;;;15.15;13.60;;;22.50;89.00;;;;;;5028623;28;20198;-86
2022/07/21 12:01:05;;;;;;;18.30;14.93;;;22.60;89.80;;;;;;5025539;28;20209;-85
2022/07/21 12:03:33;;;;;;;16.00;14.25;;;22.40;90.90;;;;;;5030476;28;20662;-85
2022/07/21 12:06:01;;;;;;;14.95;13.43;;;22.20;90.60;;;;;;5022234;28;20628;-85
2022/07/21 12:08:28;;;;;;;16.13;13.40;;;22.40;90.30;;;;;;5031778;28;20569;-87
2022/07/21 12:11:07;;;;;;;15.90;14.23;;;22.60;87.10;;;;;;5027091;28;20206;-87
2022/07/21 12:13:57;;;;;;;19.67;15.20;;;22.70;85.30;;;;;;5032763;28;20576;-85
2022/07/21 12:16:24;;;;;;;33.60;21.15;;;22.50;86.80;;;;;;5030581;28;20651;-88
2022/07/21 12:19:11;;;;;;;20.23;15.00;;;22.60;86.80;;;;;;5027054;28;20202;-83
2022/07/21 12:21:45;;;;;;;35.38;16.90;;;22.80;84.60;;;;;;5032441;28;20199;-83
2022/07/21 12:24:12;;;;;;;15.50;13.77;;;22.80;85.30;;;;;;5033497;28;20269;-83
2022/07/21 12:26:46;;;;;;;16.90;12.50;;;22.80;84.10;;;;;;5037689;28;20266;-83
2022/07/21 12:29:26;;;;;;;14.50;13.02;;;22.90;82.90;;;;;;5027549;28;20231;-84
2022/07/21 12:31:53;;;;;;;16.55;14.05;;;23.20;79.70;;;;;;5028583;28;20237;-84
2022/07/21 12:34:21;;;;;;;16.02;12.40;;;23.00;82.10;;;;;;5033088;28;20198;-84
2022/07/21 12:36:48;;;;;;;17.23;13.25;;;23.20;81.10;;;;;;5031694;28;20224;-84
2022/07/21 12:39:55;;;;;;;14.50;11.95;;;23.20;82.70;;;;;;5034059;28;20207;-84
2022/07/21 12:42:07;;;;;;;13.13;11.82;;;23.30;81.60;;;;;;5023937;28;20647;-84
2022/07/21 12:44:35;;;;;;;13.95;12.35;;;23.70;74.10;;;;;;5031398;28;20269;-85
2022/07/21 12:47:18;;;;;;;13.93;12.57;;;23.60;71.50;;;;;;5030196;28;20202;-84
2022/07/21 12:50:01;;;;;;;15.75;13.25;;;23.60;73.50;;;;;;5027735;28;20198;-87